CheckWX is a tool to help pilots better visualize weather data.  It is not intended as a substitute for an official pre-flight weather briefing.

00:20:30 UTC

KMUI TAF
Muir AAF (Fort Indiantown Gap) Airport
Fort Indiantown Gap(Annville), Pennsylvania, USA
TAF AMD KMUI 222044Z 2220/2401 13009KT 8000 -SHRA OVC004 510053 QNH2981INS BECMG 2220/2222 11006KT 4800 -RA OVC006 QNH2976INS TEMPO 2222/2302 OVC009 BECMG 2301/2302 28006KT 9999 NSW BKN015 QNH2982INS BECMG 2305/2306 29012KT 9999 FEW040 QNH2982INS BECMG 2314/2315 28015G25KT 9999 SCT015 QNH3000INS BECMG 2320/2321 27009KT 9999 SKC QNH3004INS TX16/2221Z TN09/2312Z LAST NO AMDS AFT 2304 NEXT 2311

Oct-22@
20:00 UTC

Oct-22 @ 20:00 UTC

Oct-24@
01:00 UTC

Oct-24 @ 01:00 UTC

TAF AMD KMUI 222044Z 2220/2401 13009KT 8000 -SHRA OVC004 510053 QNH2981INS
Wind
  • 130° at 9 KTS
Conditions
Light Rain
Cloud Levels
  • Overcast at 400' AGL
Turbulence
< Light turbulence expected at 500' AGL extending to 3,500' AGL

Oct-22@
20:00 UTC

Oct-22 @ 20:00 UTC

Oct-23@
01:00 UTC

Oct-23 @ 01:00 UTC

BECMG 2220/2222 11006KT 4800 -RA OVC006 QNH2976INS

Becoming

Becoming Conditions expected by Tue, Oct 22, 2019 @ 22:00 UTC

Wind
  • 110° at 6 KTS
Conditions
Light Rain
Cloud Levels
  • Overcast at 600' AGL

Oct-22@
22:00 UTC

Oct-22 @ 22:00 UTC

Oct-23@
02:00 UTC

Oct-23 @ 02:00 UTC

TEMPO 2222/2302 OVC009

Temporary

Temporary Changes expected for less than half the time period

Cloud Levels
  • Overcast at 900' AGL

Oct-23@
01:00 UTC

Oct-23 @ 01:00 UTC

Oct-23@
05:00 UTC

Oct-23 @ 05:00 UTC

BECMG 2301/2302 28006KT 9999 NSW BKN015 QNH2982INS

Becoming

Becoming Conditions expected by Wed, Oct 23, 2019 @ 02:00 UTC

Wind
  • 280° at 6 KTS
Conditions
No significant weather
Cloud Levels
  • Broken at 1,500' AGL

Oct-23@
05:00 UTC

Oct-23 @ 05:00 UTC

Oct-23@
14:00 UTC

Oct-23 @ 14:00 UTC

BECMG 2305/2306 29012KT 9999 FEW040 QNH2982INS

Becoming

Becoming Conditions expected by Wed, Oct 23, 2019 @ 06:00 UTC

Wind
  • 290° at 12 KTS
Conditions
No significant weather
Cloud Levels
  • Few at 4,000' AGL

Oct-23@
14:00 UTC

Oct-23 @ 14:00 UTC

Oct-23@
20:00 UTC

Oct-23 @ 20:00 UTC

BECMG 2314/2315 28015G25KT 9999 SCT015 QNH3000INS

Becoming

Becoming Conditions expected by Wed, Oct 23, 2019 @ 15:00 UTC

Wind
  • 280° at 15 KTS
  • {Gusting to 25 KTS
Conditions
No significant weather
Cloud Levels
  • Scattered at 1,500' AGL

Oct-23@
20:00 UTC

Oct-23 @ 20:00 UTC

Oct-24@
01:00 UTC

Oct-24 @ 01:00 UTC

BECMG 2320/2321 27009KT 9999 SKC QNH3004INS TX16/2221Z TN09/2312Z LAST NO AMDS AFT 2304 NEXT 2311

Becoming

Becoming Conditions expected by Wed, Oct 23, 2019 @ 21:00 UTC

Wind
  • 270° at 9 KTS
Conditions
No significant weather
Cloud Levels
  • Clear skies